CheckWX is a tool to help pilots better visualize weather data.  It is not intended as a substitute for an official pre-flight weather briefing.

04:48:02 UTC

KCOU TAF
Columbia Regional Airport
Columbia, Missouri, USA
KCOU 212333Z 2200/2224 15007KT P6SM OVC250 FM221800 16010KT 4SM -SNRA OVC040 FM222100 16010KT 2SM -SNRA BR OVC016

Jan-22@
00:00 UTC

Jan-22 @ 00:00 UTC

Jan-22@
18:00 UTC

Jan-22 @ 18:00 UTC

KCOU 212333Z 2200/2224 15007KT P6SM OVC250
Wind
  • 150° at 7 KTS
Cloud Levels
  • Overcast at 25,000' AGL

Jan-22@
18:00 UTC

Jan-22 @ 18:00 UTC

Jan-22@
21:00 UTC

Jan-22 @ 21:00 UTC

FM221800 16010KT 4SM -SNRA OVC040

From

From Standard forecast or significant change

Wind
  • 160° at 10 KTS
Conditions
Light Snow, Light Rain
Cloud Levels
  • Overcast at 4,000' AGL

Jan-22@
21:00 UTC

Jan-22 @ 21:00 UTC

Jan-23@
00:00 UTC

Jan-23 @ 00:00 UTC

FM222100 16010KT 2SM -SNRA BR OVC016

From

From Standard forecast or significant change

Wind
  • 160° at 10 KTS
Conditions
Light Snow, Light Rain, Mist
Cloud Levels
  • Overcast at 1,600' AGL